createdAt,value
2018-12-03T00:00:50.274Z,12.88
2018-12-03T00:01:50.202Z,12.89
2018-12-03T00:02:50.122Z,12.92
2018-12-03T00:03:50.046Z,12.82
2018-12-03T00:04:49.971Z,12.82
2018-12-03T00:05:49.892Z,12.84
2018-12-03T00:06:49.817Z,12.88
2018-12-03T00:07:49.740Z,12.97
2018-12-03T00:08:49.670Z,12.96
2018-12-03T00:09:49.587Z,13.00
2018-12-03T00:10:49.511Z,12.89
2018-12-03T00:11:49.433Z,12.86
2018-12-03T00:12:49.356Z,12.89
2018-12-03T00:13:49.282Z,12.88
2018-12-03T00:14:49.203Z,12.94
2018-12-03T00:15:49.128Z,12.82
2018-12-03T00:16:49.055Z,12.84
2018-12-03T00:17:48.974Z,12.96
2018-12-03T00:18:48.898Z,12.97
2018-12-03T00:19:48.877Z,12.88
2018-12-03T00:20:48.745Z,12.88
2018-12-03T00:21:48.668Z,12.81
2018-12-03T00:22:48.591Z,12.96
2018-12-03T00:23:48.516Z,12.91
2018-12-03T00:24:48.440Z,12.99
2018-12-03T00:25:48.362Z,12.86
2018-12-03T00:26:48.286Z,12.89
2018-12-03T00:27:48.209Z,12.84
2018-12-03T00:28:48.133Z,12.96
2018-12-03T00:29:48.057Z,12.82
2018-12-03T00:30:47.981Z,12.88
2018-12-03T00:31:47.903Z,12.88
2018-12-03T00:32:47.827Z,12.88
2018-12-03T00:33:47.750Z,12.89
2018-12-03T00:34:47.673Z,12.88
2018-12-03T00:35:47.597Z,12.89
2018-12-03T00:36:47.520Z,12.89
2018-12-03T00:37:47.443Z,12.88
2018-12-03T00:38:47.368Z,12.91
2018-12-03T00:39:47.292Z,12.89
2018-12-03T00:40:47.215Z,12.91
2018-12-03T00:41:47.139Z,12.96
2018-12-03T00:42:47.060Z,12.99
2018-12-03T00:43:46.984Z,13.02
2018-12-03T00:44:46.907Z,13.02
2018-12-03T00:45:46.830Z,12.99
2018-12-03T00:46:46.756Z,12.99
2018-12-03T00:47:46.677Z,12.86
2018-12-03T00:48:46.607Z,12.86
2018-12-03T00:49:46.528Z,12.86
2018-12-03T00:50:46.447Z,12.91
2018-12-03T00:51:46.371Z,12.92
2018-12-03T00:52:46.295Z,12.92
2018-12-03T00:53:46.217Z,12.81
2018-12-03T00:54:46.191Z,12.81
2018-12-03T00:55:46.065Z,12.85
2018-12-03T00:56:45.988Z,12.81
2018-12-03T00:57:45.911Z,12.79
2018-12-03T00:58:45.835Z,12.81
2018-12-03T00:59:45.758Z,12.82
2018-12-03T01:00:45.682Z,12.71
2018-12-03T01:01:45.604Z,12.82
2018-12-03T01:02:45.535Z,12.81
2018-12-03T01:03:45.452Z,12.85
2018-12-03T01:04:45.376Z,12.89
2018-12-03T01:05:45.299Z,12.81
2018-12-03T01:06:45.222Z,12.94
2018-12-03T01:07:45.145Z,12.96
2018-12-03T01:08:45.069Z,12.96
2018-12-03T01:09:44.992Z,13.02
2018-12-03T01:10:44.916Z,13.03
2018-12-03T01:11:44.839Z,13.07
2018-12-03T01:12:44.762Z,13.09
2018-12-03T01:13:44.683Z,13.00
2018-12-03T01:14:44.608Z,13.03
2018-12-03T01:15:44.531Z,13.06
2018-12-03T01:16:44.459Z,12.97
2018-12-03T01:17:44.377Z,12.99
2018-12-03T01:18:44.300Z,12.92
2018-12-03T01:19:44.223Z,12.91
2018-12-03T01:20:44.150Z,12.86
2018-12-03T01:21:44.071Z,12.91
2018-12-03T01:22:43.994Z,12.88
2018-12-03T01:23:43.919Z,12.92
2018-12-03T01:24:43.841Z,12.81
2018-12-03T01:25:43.766Z,12.71
2018-12-03T01:26:43.689Z,12.84
2018-12-03T01:27:43.613Z,12.85
2018-12-03T01:28:43.536Z,12.77
2018-12-03T01:29:43.459Z,12.79
2018-12-03T01:30:43.383Z,12.73
2018-12-03T01:31:43.313Z,12.71
2018-12-03T01:32:43.237Z,12.69
2018-12-03T01:33:43.153Z,12.77
2018-12-03T01:34:43.077Z,12.71
2018-12-03T01:35:43.000Z,12.79
2018-12-03T01:36:42.924Z,12.78
2018-12-03T01:37:42.849Z,12.77
2018-12-03T01:38:42.773Z,12.78
2018-12-03T01:39:42.696Z,12.78
2018-12-03T01:40:42.620Z,12.71
2018-12-03T01:41:42.542Z,12.70
2018-12-03T01:42:42.466Z,12.71
2018-12-03T01:43:42.390Z,12.61
2018-12-03T01:44:42.314Z,12.71
2018-12-03T01:45:42.238Z,12.69
2018-12-03T01:46:42.160Z,12.70
2018-12-03T01:47:42.086Z,12.67
2018-12-03T01:48:42.009Z,12.78
2018-12-03T01:49:41.932Z,12.71
2018-12-03T01:50:41.855Z,12.70
2018-12-03T01:51:41.780Z,12.77
2018-12-03T01:52:41.709Z,12.69
2018-12-03T01:53:41.627Z,12.70
2018-12-03T01:54:41.551Z,12.74
2018-12-03T01:55:41.474Z,12.77
2018-12-03T01:56:41.397Z,12.77
2018-12-03T01:57:41.422Z,12.77
2018-12-03T01:58:41.245Z,12.74
2018-12-03T01:59:41.172Z,12.78
2018-12-03T02:00:41.095Z,12.74
2018-12-03T02:01:41.019Z,12.73
2018-12-03T02:02:40.940Z,12.71
2018-12-03T02:03:40.863Z,12.78
2018-12-03T02:04:40.787Z,12.78
2018-12-03T02:05:40.710Z,12.69
2018-12-03T02:06:40.638Z,12.64
2018-12-03T02:07:40.555Z,12.70
2018-12-03T02:08:40.481Z,12.74
2018-12-03T02:09:40.402Z,12.63
2018-12-03T02:10:40.327Z,12.73
2018-12-03T02:11:40.250Z,12.69
2018-12-03T02:12:40.174Z,12.79
2018-12-03T02:13:40.097Z,12.70
2018-12-03T02:14:40.020Z,12.56
2018-12-03T02:15:39.944Z,12.67
2018-12-03T02:16:39.869Z,12.64
2018-12-03T02:17:39.790Z,12.69
2018-12-03T02:18:39.716Z,12.79
2018-12-03T02:19:39.637Z,12.66
2018-12-03T02:20:39.565Z,12.69
2018-12-03T02:21:39.484Z,12.77
2018-12-03T02:22:39.412Z,12.67
2018-12-03T02:23:39.331Z,12.78
2018-12-03T02:24:39.256Z,12.66
2018-12-03T02:25:39.178Z,12.73
2018-12-03T02:26:39.105Z,12.73
2018-12-03T02:27:39.026Z,12.69
2018-12-03T02:28:38.950Z,12.63
2018-12-03T02:29:38.874Z,12.61
2018-12-03T02:30:38.797Z,12.61
2018-12-03T02:31:38.720Z,12.64
2018-12-03T02:32:38.643Z,12.64
2018-12-03T02:33:38.569Z,12.61
2018-12-03T02:34:38.593Z,12.73
2018-12-03T02:35:38.421Z,12.63
2018-12-03T02:36:38.337Z,12.60
2018-12-03T02:37:38.260Z,12.70
2018-12-03T02:38:38.186Z,12.63
2018-12-03T02:39:38.110Z,12.63
2018-12-03T02:40:38.283Z,12.61
2018-12-03T02:41:37.956Z,12.71
2018-12-03T02:42:37.879Z,12.60
2018-12-03T02:43:37.805Z,12.60
2018-12-03T02:44:37.730Z,12.63
2018-12-03T02:45:37.674Z,12.64
2018-12-03T02:46:37.574Z,12.55
2018-12-03T02:47:37.506Z,12.55
2018-12-03T02:48:37.421Z,12.59
2018-12-03T02:49:37.344Z,12.56
2018-12-03T02:50:37.268Z,12.63
2018-12-03T02:51:37.192Z,12.63
2018-12-03T02:52:37.116Z,12.64
2018-12-03T02:53:37.039Z,12.46
2018-12-03T02:54:36.970Z,12.48
2018-12-03T02:55:36.886Z,12.48
2018-12-03T02:56:36.861Z,12.49
2018-12-03T02:57:36.735Z,12.51
2018-12-03T02:58:36.657Z,12.52
2018-12-03T02:59:36.580Z,12.49
2018-12-03T03:00:36.503Z,12.49
2018-12-03T03:01:36.425Z,12.49
2018-12-03T03:02:36.350Z,12.52
2018-12-03T03:03:36.273Z,12.48
2018-12-03T03:04:36.197Z,12.51
2018-12-03T03:05:36.124Z,12.51
2018-12-03T03:06:36.045Z,12.59
2018-12-03T03:07:36.068Z,12.63
2018-12-03T03:08:35.893Z,12.55
2018-12-03T03:09:35.816Z,12.56
2018-12-03T03:10:35.741Z,12.55
2018-12-03T03:11:35.663Z,12.60
2018-12-03T03:12:35.586Z,12.55
2018-12-03T03:13:35.510Z,12.60
2018-12-03T03:14:35.433Z,12.63
2018-12-03T03:15:35.359Z,12.59
2018-12-03T03:16:35.281Z,12.60
2018-12-03T03:17:35.204Z,12.60
2018-12-03T03:18:35.177Z,12.70
2018-12-03T03:19:35.051Z,12.59
2018-12-03T03:20:34.977Z,12.79
2018-12-03T03:21:34.899Z,12.78
2018-12-03T03:22:34.823Z,12.66
2018-12-03T03:23:34.746Z,12.69
2018-12-03T03:24:34.670Z,12.66
2018-12-03T03:25:34.600Z,12.74
2018-12-03T03:26:34.517Z,12.84
2018-12-03T03:27:34.439Z,12.71
2018-12-03T03:28:34.363Z,12.78
2018-12-03T03:29:34.337Z,12.71
2018-12-03T03:30:34.214Z,12.77
2018-12-03T03:31:34.136Z,12.82
2018-12-03T03:32:35.022Z,12.89
2018-12-03T03:33:33.982Z,12.89
2018-12-03T03:34:33.905Z,12.82
2018-12-03T03:35:33.833Z,12.70
2018-12-03T03:36:33.752Z,12.84
2018-12-03T03:37:33.677Z,12.82
2018-12-03T03:38:33.600Z,12.79
2018-12-03T03:39:33.524Z,12.88
2018-12-03T03:40:33.448Z,12.82
2018-12-03T03:41:33.376Z,12.85
2018-12-03T03:42:33.298Z,12.84
2018-12-03T03:43:33.222Z,12.88
2018-12-03T03:44:33.155Z,12.97
2018-12-03T03:45:33.066Z,12.99
2018-12-03T03:46:32.989Z,13.02
2018-12-03T03:47:32.916Z,12.92
2018-12-03T03:48:32.838Z,12.97
2018-12-03T03:49:32.760Z,13.02
2018-12-03T03:50:32.691Z,12.99
2018-12-03T03:51:32.609Z,12.97
2018-12-03T03:52:32.545Z,13.00
2018-12-03T03:53:32.455Z,13.06
2018-12-03T03:54:32.379Z,13.07
2018-12-03T03:55:32.302Z,13.04
2018-12-03T03:56:32.228Z,13.14
2018-12-03T03:57:32.149Z,13.07
2018-12-03T03:58:32.073Z,13.00
2018-12-03T03:59:31.998Z,13.04
2018-12-03T04:00:31.923Z,13.09
2018-12-03T04:01:31.849Z,13.03
2018-12-03T04:02:31.771Z,13.11
2018-12-03T04:03:31.693Z,13.06
2018-12-03T04:04:31.618Z,13.04
2018-12-03T04:05:31.640Z,13.04
2018-12-03T04:06:31.464Z,13.07
2018-12-03T04:07:31.388Z,13.04
2018-12-03T04:08:31.313Z,13.09
2018-12-03T04:09:31.235Z,13.02
2018-12-03T04:10:31.410Z,13.14
2018-12-03T04:11:31.085Z,13.11
2018-12-03T04:12:31.008Z,13.07
2018-12-03T04:13:30.937Z,13.15
2018-12-03T04:14:30.854Z,13.14
2018-12-03T04:15:30.777Z,13.19
2018-12-03T04:16:30.702Z,13.11
2018-12-03T04:17:30.625Z,13.14
2018-12-03T04:18:30.550Z,13.22
2018-12-03T04:19:30.473Z,13.07
2018-12-03T04:20:30.400Z,13.07
2018-12-03T04:21:30.319Z,13.18
2018-12-03T04:22:30.244Z,13.19
2018-12-03T04:23:30.167Z,13.10
2018-12-03T04:24:30.091Z,13.14
2018-12-03T04:25:30.264Z,13.11
2018-12-03T04:26:29.938Z,13.04
2018-12-03T04:27:29.863Z,13.11
2018-12-03T04:28:29.786Z,13.06
2018-12-03T04:29:29.709Z,13.06
2018-12-03T04:30:29.635Z,13.06
2018-12-03T04:31:29.557Z,13.07
2018-12-03T04:32:29.480Z,13.22
2018-12-03T04:33:29.405Z,13.36
2018-12-03T04:34:29.329Z,13.27
2018-12-03T04:35:29.254Z,13.33
2018-12-03T04:36:29.176Z,13.27
2018-12-03T04:37:29.098Z,13.21
2018-12-03T04:38:29.023Z,13.14
2018-12-03T04:39:28.946Z,13.11
2018-12-03T04:40:28.870Z,13.18
2018-12-03T04:41:28.792Z,13.11
2018-12-03T04:42:28.716Z,13.14
2018-12-03T04:43:28.640Z,13.17
2018-12-03T04:44:28.563Z,13.06
2018-12-03T04:45:28.485Z,13.04
2018-12-03T04:46:28.408Z,13.09
2018-12-03T04:47:28.334Z,13.00
2018-12-03T04:48:28.256Z,13.02
2018-12-03T04:49:28.179Z,13.00
2018-12-03T04:50:28.127Z,12.96
2018-12-03T04:51:28.032Z,12.84
2018-12-03T04:52:27.950Z,12.88
2018-12-03T04:53:27.873Z,12.81
2018-12-03T04:54:27.796Z,12.86
2018-12-03T04:55:27.719Z,12.78
2018-12-03T04:56:27.643Z,12.63
2018-12-03T04:57:27.568Z,12.71
2018-12-03T04:58:27.490Z,12.77
2018-12-03T04:59:27.414Z,12.63
2018-12-03T05:00:27.338Z,12.63
2018-12-03T05:01:27.261Z,12.60
2018-12-03T05:02:27.187Z,12.63
2018-12-03T05:03:27.110Z,12.60
2018-12-03T05:04:27.041Z,12.55
2018-12-03T05:05:26.954Z,12.59
2018-12-03T05:06:26.878Z,12.55
2018-12-03T05:07:26.807Z,12.59
2018-12-03T05:08:26.737Z,12.53
2018-12-03T05:09:26.647Z,12.46
2018-12-03T05:10:26.572Z,12.45
2018-12-03T05:11:26.496Z,12.49
2018-12-03T05:12:26.421Z,12.49
2018-12-03T05:13:26.343Z,12.49
2018-12-03T05:14:26.270Z,12.52
2018-12-03T05:15:26.190Z,12.48
2018-12-03T05:16:26.113Z,12.49
2018-12-03T05:17:26.037Z,12.49
2018-12-03T05:18:25.962Z,12.56
2018-12-03T05:19:25.885Z,12.51
2018-12-03T05:20:25.810Z,12.51
2018-12-03T05:21:25.732Z,12.52
2018-12-03T05:22:25.659Z,12.49
2018-12-03T05:23:25.579Z,12.53
2018-12-03T05:24:25.503Z,12.60
2018-12-03T05:25:25.427Z,12.55
2018-12-03T05:26:25.400Z,12.71
2018-12-03T05:27:25.274Z,12.67
2018-12-03T05:28:25.198Z,12.77
2018-12-03T05:29:25.122Z,12.66
2018-12-03T05:30:25.045Z,12.66
2018-12-03T05:31:24.970Z,12.73
2018-12-03T05:32:24.895Z,12.74
2018-12-03T05:33:24.821Z,12.85
2018-12-03T05:34:24.740Z,12.81
2018-12-03T05:35:24.664Z,12.91
2018-12-03T05:36:24.588Z,12.82
2018-12-03T05:37:24.762Z,12.88
2018-12-03T05:38:24.440Z,12.97
2018-12-03T05:39:24.360Z,12.97
2018-12-03T05:40:24.283Z,12.86
2018-12-03T05:41:24.206Z,12.82
2018-12-03T05:42:24.140Z,12.82
2018-12-03T05:43:24.054Z,12.97
2018-12-03T05:44:23.981Z,13.02
2018-12-03T05:45:23.901Z,13.03
2018-12-03T05:46:23.827Z,13.04
2018-12-03T05:47:23.749Z,12.96
2018-12-03T05:48:23.673Z,12.94
2018-12-03T05:49:23.597Z,13.00
2018-12-03T05:50:23.520Z,12.96
2018-12-03T05:51:23.445Z,12.99
2018-12-03T05:52:23.367Z,12.86
2018-12-03T05:53:23.293Z,12.96
2018-12-03T05:54:23.266Z,12.92
2018-12-03T05:55:23.140Z,12.92
2018-12-03T05:56:23.064Z,12.96
2018-12-03T05:57:22.984Z,12.96
2018-12-03T05:58:22.911Z,12.99
2018-12-03T05:59:22.834Z,12.89
2018-12-03T06:00:22.758Z,12.91
2018-12-03T06:01:22.682Z,13.03
2018-12-03T06:02:22.604Z,13.02
2018-12-03T06:03:22.529Z,12.99
2018-12-03T06:04:22.453Z,13.02
2018-12-03T06:05:22.376Z,13.00
2018-12-03T06:06:22.307Z,12.99
2018-12-03T06:07:22.222Z,13.00
2018-12-03T06:08:22.145Z,13.00
2018-12-03T06:09:22.070Z,13.00
2018-12-03T06:10:21.995Z,13.02
2018-12-03T06:11:21.917Z,12.96
2018-12-03T06:12:21.841Z,12.88
2018-12-03T06:13:21.765Z,12.97
2018-12-03T06:14:21.736Z,12.88
2018-12-03T06:15:21.612Z,12.82
2018-12-03T06:16:21.535Z,12.94
2018-12-03T06:17:21.459Z,12.96
2018-12-03T06:18:21.383Z,12.96
2018-12-03T06:19:21.312Z,12.97
2018-12-03T06:20:21.231Z,12.97
2018-12-03T06:21:21.157Z,12.86
2018-12-03T06:22:21.076Z,12.97
2018-12-03T06:23:21.001Z,12.99
2018-12-03T06:24:20.924Z,12.92
2018-12-03T06:25:20.847Z,13.00
2018-12-03T06:26:20.770Z,13.00
2018-12-03T06:27:20.694Z,12.97
2018-12-03T06:28:20.618Z,13.04
2018-12-03T06:29:20.548Z,13.00
2018-12-03T06:30:20.467Z,12.97
2018-12-03T06:31:20.388Z,12.96
2018-12-03T06:32:20.313Z,13.03
2018-12-03T06:33:20.235Z,12.91
2018-12-03T06:34:20.161Z,13.04
2018-12-03T06:35:20.083Z,12.94
2018-12-03T06:36:20.007Z,12.89
2018-12-03T06:37:19.933Z,12.89
2018-12-03T06:38:19.857Z,12.81
2018-12-03T06:39:19.777Z,12.88
2018-12-03T06:40:19.700Z,12.96
2018-12-03T06:41:19.624Z,12.81
2018-12-03T06:42:19.548Z,12.77
2018-12-03T06:43:19.471Z,12.85
2018-12-03T06:44:19.396Z,12.77
2018-12-03T06:45:19.318Z,12.86
2018-12-03T06:46:19.240Z,12.84
2018-12-03T06:47:19.167Z,12.81
2018-12-03T06:48:19.089Z,12.73
2018-12-03T06:49:19.114Z,12.69
2018-12-03T06:50:18.939Z,12.66
2018-12-03T06:51:18.859Z,12.69
2018-12-03T06:52:18.786Z,12.77
2018-12-03T06:53:18.710Z,12.70
2018-12-03T06:54:18.630Z,12.89
2018-12-03T06:55:18.554Z,12.85
2018-12-03T06:56:18.478Z,12.97
2018-12-03T06:57:18.403Z,12.86
2018-12-03T06:58:18.326Z,12.77
2018-12-03T06:59:18.248Z,12.77
2018-12-03T07:00:18.174Z,12.73
2018-12-03T07:01:18.098Z,12.85
2018-12-03T07:02:18.020Z,12.92
2018-12-03T07:03:17.945Z,12.92
2018-12-03T07:04:17.868Z,12.94
2018-12-03T07:05:17.794Z,12.99
2018-12-03T07:06:17.716Z,12.96
2018-12-03T07:07:17.640Z,13.00
2018-12-03T07:08:17.567Z,12.97
2018-12-03T07:09:17.487Z,12.96
2018-12-03T07:10:17.410Z,12.96
2018-12-03T07:11:17.336Z,12.96
2018-12-03T07:12:17.260Z,12.96
2018-12-03T07:13:17.182Z,12.97
2018-12-03T07:14:17.106Z,12.88
2018-12-03T07:15:17.030Z,12.84
2018-12-03T07:16:16.954Z,12.86
2018-12-03T07:17:16.875Z,12.99
2018-12-03T07:18:16.801Z,12.86
2018-12-03T07:19:16.824Z,12.86
2018-12-03T07:20:16.650Z,12.88
2018-12-03T07:21:16.572Z,12.88
2018-12-03T07:22:16.494Z,12.97
2018-12-03T07:23:16.420Z,12.88
2018-12-03T07:24:16.343Z,13.00
2018-12-03T07:25:16.266Z,12.99
2018-12-03T07:26:16.190Z,12.99
2018-12-03T07:27:16.113Z,12.99
2018-12-03T07:28:16.038Z,12.92
2018-12-03T07:29:15.964Z,12.92
2018-12-03T07:30:15.885Z,13.02
2018-12-03T07:31:15.816Z,13.09
2018-12-03T07:32:15.735Z,13.09
2018-12-03T07:33:15.657Z,13.06
2018-12-03T07:34:15.581Z,13.00
2018-12-03T07:35:15.509Z,13.04
2018-12-03T07:36:15.429Z,13.02
2018-12-03T07:37:15.352Z,13.06
2018-12-03T07:38:15.275Z,13.06
2018-12-03T07:39:15.202Z,13.06
2018-12-03T07:40:15.125Z,13.09
2018-12-03T07:41:15.047Z,13.07
2018-12-03T07:42:14.972Z,13.02
2018-12-03T07:43:14.903Z,13.07
2018-12-03T07:44:14.821Z,13.07
2018-12-03T07:45:14.743Z,13.06
2018-12-03T07:46:14.667Z,13.00
2018-12-03T07:47:14.591Z,13.04
2018-12-03T07:48:14.515Z,13.03
2018-12-03T07:49:14.440Z,13.09
2018-12-03T07:50:14.362Z,13.10
2018-12-03T07:51:14.287Z,13.17
2018-12-03T07:52:14.210Z,13.11
2018-12-03T07:53:14.134Z,13.15
2018-12-03T07:54:14.059Z,13.17
2018-12-03T07:55:13.984Z,13.11
2018-12-03T07:56:13.907Z,13.14
2018-12-03T07:57:13.829Z,13.17
2018-12-03T07:58:13.752Z,13.22
2018-12-03T07:59:13.679Z,13.10
2018-12-03T08:00:13.601Z,13.14
2018-12-03T08:01:13.525Z,13.15
2018-12-03T08:02:13.449Z,13.19
2018-12-03T08:03:13.372Z,13.15
2018-12-03T08:04:13.296Z,13.07
2018-12-03T08:05:13.222Z,13.06
2018-12-03T08:06:13.144Z,13.15
2018-12-03T08:07:13.068Z,13.18
2018-12-03T08:08:12.994Z,13.15
2018-12-03T08:09:12.918Z,13.22
2018-12-03T08:10:12.839Z,13.19
2018-12-03T08:11:12.763Z,13.10
2018-12-03T08:12:12.689Z,13.18
2018-12-03T08:13:12.610Z,13.25
2018-12-03T08:14:12.534Z,13.28
2018-12-03T08:15:12.458Z,13.24
2018-12-03T08:16:12.383Z,13.17
2018-12-03T08:17:12.307Z,13.15
2018-12-03T08:18:12.229Z,13.21
2018-12-03T08:19:12.157Z,13.24
2018-12-03T08:20:12.079Z,13.18
2018-12-03T08:21:12.002Z,13.19
2018-12-03T08:22:11.927Z,13.24
2018-12-03T08:23:11.850Z,13.21
2018-12-03T08:24:11.776Z,13.24
2018-12-03T08:25:11.701Z,13.25
2018-12-03T08:26:11.631Z,13.32
2018-12-03T08:27:11.546Z,13.22
2018-12-03T08:28:11.470Z,13.22
2018-12-03T08:29:11.394Z,13.18
2018-12-03T08:30:11.318Z,13.17
2018-12-03T08:31:11.242Z,13.15
2018-12-03T08:32:11.167Z,13.24
2018-12-03T08:33:11.089Z,13.18
2018-12-03T08:34:11.015Z,13.21
2018-12-03T08:35:10.942Z,13.24
2018-12-03T08:36:10.863Z,13.19
2018-12-03T08:37:10.785Z,13.28
2018-12-03T08:38:10.809Z,13.24
2018-12-03T08:39:10.634Z,13.27
2018-12-03T08:40:10.559Z,13.18
2018-12-03T08:41:10.483Z,13.27
2018-12-03T08:42:10.406Z,13.29
2018-12-03T08:43:10.330Z,13.27
2018-12-03T08:44:10.255Z,13.28
2018-12-03T08:45:10.180Z,13.24
2018-12-03T08:46:10.106Z,13.28
2018-12-03T08:47:10.031Z,13.28
2018-12-03T08:48:09.955Z,13.37
2018-12-03T08:49:09.878Z,13.40
2018-12-03T08:50:09.800Z,13.40
2018-12-03T08:51:09.724Z,13.41
2018-12-03T08:52:09.648Z,13.40
2018-12-03T08:53:09.571Z,13.38
2018-12-03T08:54:09.498Z,13.24
2018-12-03T08:55:09.470Z,13.37
2018-12-03T08:56:09.346Z,13.33
2018-12-03T08:57:09.269Z,13.27
2018-12-03T08:58:09.193Z,13.24
2018-12-03T08:59:09.117Z,13.29
2018-12-03T09:00:09.041Z,13.29
2018-12-03T09:01:08.965Z,13.27
2018-12-03T09:02:08.889Z,13.19
2018-12-03T09:03:08.813Z,13.29
2018-12-03T09:04:08.739Z,13.25
2018-12-03T09:05:08.663Z,13.29
2018-12-03T09:06:08.588Z,13.36
2018-12-03T09:07:08.509Z,13.41
2018-12-03T09:08:08.435Z,13.33
2018-12-03T09:09:08.358Z,13.43
2018-12-03T09:10:08.283Z,13.47
2018-12-03T09:11:08.207Z,13.48
2018-12-03T09:12:08.133Z,13.43
2018-12-03T09:13:08.055Z,13.56
2018-12-03T09:14:07.980Z,13.55
2018-12-03T09:15:07.954Z,13.56
2018-12-03T09:16:07.828Z,13.58
2018-12-03T09:17:07.752Z,13.61
2018-12-03T09:18:07.675Z,13.58
2018-12-03T09:19:07.600Z,13.53
2018-12-03T09:20:07.529Z,13.55
2018-12-03T09:21:07.549Z,13.58
2018-12-03T09:22:07.374Z,13.59
2018-12-03T09:23:07.297Z,13.58
2018-12-03T09:24:07.225Z,13.58
2018-12-03T09:25:07.147Z,13.70
2018-12-03T09:26:07.070Z,13.59
2018-12-03T09:27:06.996Z,13.65
2018-12-03T09:28:06.920Z,13.63
2018-12-03T09:29:06.843Z,13.66
2018-12-03T09:30:06.768Z,13.68
2018-12-03T09:31:06.694Z,13.66
2018-12-03T09:32:06.617Z,13.70
2018-12-03T09:33:06.590Z,13.71
2018-12-03T09:34:06.465Z,13.73
2018-12-03T09:35:06.390Z,13.81
2018-12-03T09:36:06.316Z,13.84
2018-12-03T09:37:06.238Z,13.84
2018-12-03T09:38:06.163Z,13.84
2018-12-03T09:39:06.091Z,13.81
2018-12-03T09:40:06.012Z,13.81
2018-12-03T09:41:06.054Z,13.84
2018-12-03T09:42:05.861Z,13.86
2018-12-03T09:43:05.786Z,13.83
2018-12-03T09:44:05.711Z,13.76
2018-12-03T09:45:05.637Z,13.73
2018-12-03T09:46:05.561Z,13.74
2018-12-03T09:47:05.485Z,13.76
2018-12-03T09:48:05.419Z,13.71
2018-12-03T09:49:05.333Z,13.73
2018-12-03T09:50:05.259Z,13.68
2018-12-03T09:51:05.234Z,13.65
2018-12-03T09:52:05.107Z,13.63
2018-12-03T09:53:05.034Z,13.55
2018-12-03T09:54:04.959Z,13.59
2018-12-03T09:55:04.881Z,13.58
2018-12-03T09:56:04.806Z,13.58
2018-12-03T09:57:04.729Z,13.53
2018-12-03T09:58:04.660Z,13.56
2018-12-03T09:59:04.580Z,13.52
2018-12-03T10:00:04.504Z,13.56
2018-12-03T10:01:04.427Z,13.48
2018-12-03T10:02:04.351Z,13.48
2018-12-03T10:03:04.277Z,13.45
2018-12-03T10:04:04.206Z,13.56
2018-12-03T10:05:04.127Z,13.50
2018-12-03T10:06:04.049Z,13.59
2018-12-03T10:07:03.974Z,13.53
2018-12-03T10:08:03.896Z,13.56
2018-12-03T10:09:03.871Z,13.45
2018-12-03T10:10:03.747Z,13.44
2018-12-03T10:11:03.684Z,13.56
2018-12-03T10:12:03.596Z,13.62
2018-12-03T10:13:03.519Z,13.65
2018-12-03T10:14:03.444Z,13.68
2018-12-03T10:15:03.466Z,13.66
2018-12-03T10:16:03.291Z,13.53
2018-12-03T10:17:03.218Z,13.56
2018-12-03T10:18:03.139Z,13.58
2018-12-03T10:19:03.066Z,13.55
2018-12-03T10:20:02.987Z,13.53
2018-12-03T10:21:02.910Z,13.44
2018-12-03T10:22:02.836Z,13.47
2018-12-03T10:23:02.813Z,13.45
2018-12-03T10:24:02.684Z,13.45
2018-12-03T10:25:02.607Z,13.43
2018-12-03T10:26:02.532Z,13.38
2018-12-03T10:27:02.507Z,13.40
2018-12-03T10:28:02.380Z,13.36
2018-12-03T10:29:02.303Z,13.24
2018-12-03T10:30:02.227Z,13.29
2018-12-03T10:31:02.152Z,13.25
2018-12-03T10:32:02.076Z,13.32
2018-12-03T10:33:01.999Z,13.29
2018-12-03T10:34:01.924Z,13.27
2018-12-03T10:35:01.848Z,13.27
2018-12-03T10:36:01.772Z,13.29
2018-12-03T10:37:01.695Z,13.24
2018-12-03T10:38:01.620Z,13.24
2018-12-03T10:39:01.550Z,13.24
2018-12-03T10:40:01.468Z,13.25
2018-12-03T10:41:01.392Z,13.18
2018-12-03T10:42:01.314Z,13.21
2018-12-03T10:43:01.238Z,13.15
2018-12-03T10:44:01.164Z,13.17
2018-12-03T10:45:01.136Z,13.32
2018-12-03T10:46:01.011Z,13.22
2018-12-03T10:47:00.933Z,13.25
2018-12-03T10:48:00.857Z,13.25
2018-12-03T10:49:02.067Z,13.19
2018-12-03T10:50:00.704Z,13.22
2018-12-03T10:51:00.636Z,13.17
2018-12-03T10:52:00.551Z,13.09
2018-12-03T10:53:00.475Z,13.07
2018-12-03T10:54:00.446Z,13.00
2018-12-03T10:55:00.323Z,13.04
2018-12-03T10:56:00.248Z,13.02
2018-12-03T10:57:00.171Z,13.00
2018-12-03T10:58:00.096Z,13.00
2018-12-03T10:59:00.017Z,13.03
2018-12-03T10:59:59.941Z,13.03
2018-12-03T11:00:59.864Z,12.97
2018-12-03T11:01:59.788Z,12.91
2018-12-03T11:02:59.762Z,12.86
2018-12-03T11:03:59.638Z,12.79
2018-12-03T11:04:59.558Z,12.82
2018-12-03T11:05:59.484Z,12.84
2018-12-03T11:06:59.405Z,12.85
2018-12-03T11:07:59.329Z,12.91
2018-12-03T11:08:59.401Z,12.96
2018-12-03T11:09:59.175Z,13.06
2018-12-03T11:10:59.099Z,13.00
2018-12-03T11:11:59.029Z,13.04
2018-12-03T11:12:58.945Z,13.09
2018-12-03T11:13:58.869Z,13.09
2018-12-03T11:14:58.792Z,13.11
2018-12-03T11:15:58.715Z,13.07
2018-12-03T11:16:58.638Z,13.07
2018-12-03T11:17:58.562Z,13.07
2018-12-03T11:18:58.484Z,13.04
2018-12-03T11:19:58.409Z,12.99
2018-12-03T11:20:58.382Z,13.03
2018-12-03T11:21:58.258Z,12.96
2018-12-03T11:22:58.179Z,12.92
2018-12-03T11:23:58.103Z,12.91
2018-12-03T11:24:58.026Z,12.86
2018-12-03T11:25:57.951Z,12.88
2018-12-03T11:26:57.973Z,12.85
2018-12-03T11:27:57.797Z,12.84
2018-12-03T11:28:57.720Z,12.74
2018-12-03T11:29:57.643Z,12.79
2018-12-03T11:30:57.567Z,12.74
2018-12-03T11:31:57.491Z,12.66
2018-12-03T11:32:57.613Z,12.70
2018-12-03T11:33:57.339Z,12.71
2018-12-03T11:34:57.265Z,12.79
2018-12-03T11:35:57.185Z,12.63
2018-12-03T11:36:57.111Z,12.67
2018-12-03T11:37:57.031Z,12.66
2018-12-03T11:38:57.056Z,12.64
2018-12-03T11:39:56.878Z,12.67
2018-12-03T11:40:56.806Z,12.64
2018-12-03T11:41:56.724Z,12.59
2018-12-03T11:42:56.649Z,12.61
2018-12-03T11:43:56.572Z,12.67
2018-12-03T11:44:56.744Z,12.61
2018-12-03T11:45:56.421Z,12.61
2018-12-03T11:46:56.341Z,12.71
2018-12-03T11:47:56.266Z,12.79
2018-12-03T11:48:56.188Z,12.78
2018-12-03T11:49:56.113Z,12.60
2018-12-03T11:50:56.135Z,12.71
2018-12-03T11:51:55.960Z,12.78
2018-12-03T11:52:55.881Z,12.69
2018-12-03T11:53:55.807Z,12.79
2018-12-03T11:54:55.731Z,12.64
2018-12-03T11:55:55.653Z,12.67
2018-12-03T11:56:55.777Z,12.69
2018-12-03T11:57:55.500Z,12.73
2018-12-03T11:58:55.423Z,12.71
2018-12-03T11:59:55.347Z,12.67
2018-12-03T12:00:55.270Z,12.71
2018-12-03T12:01:55.195Z,12.78
2018-12-03T12:02:55.219Z,12.61
2018-12-03T12:03:55.043Z,12.56
2018-12-03T12:04:54.966Z,12.60
2018-12-03T12:05:54.889Z,12.56
2018-12-03T12:06:54.813Z,12.56
2018-12-03T12:07:54.736Z,12.56
2018-12-03T12:08:54.909Z,12.59
2018-12-03T12:09:54.583Z,12.61
2018-12-03T12:10:54.507Z,12.48
2018-12-03T12:11:54.432Z,12.60
2018-12-03T12:12:54.354Z,12.53
2018-12-03T12:13:54.278Z,12.52
2018-12-03T12:14:54.301Z,12.53
2018-12-03T12:15:54.125Z,12.52
2018-12-03T12:16:54.052Z,12.51
2018-12-03T12:17:53.972Z,12.49
2018-12-03T12:18:53.896Z,12.51
2018-12-03T12:19:53.820Z,12.48
2018-12-03T12:20:53.943Z,12.51
2018-12-03T12:21:53.682Z,12.53
2018-12-03T12:22:53.591Z,12.51
2018-12-03T12:23:53.514Z,12.44
2018-12-03T12:24:53.437Z,12.49
2018-12-03T12:25:53.362Z,12.55
2018-12-03T12:26:53.284Z,12.42
2018-12-03T12:27:53.210Z,12.48
2018-12-03T12:28:53.131Z,12.41
2018-12-03T12:29:53.055Z,12.34
2018-12-03T12:30:52.982Z,12.39
2018-12-03T12:31:52.906Z,12.36
2018-12-03T12:32:52.876Z,12.31
2018-12-03T12:33:52.750Z,12.30
2018-12-03T12:34:52.674Z,12.26
2018-12-03T12:35:52.601Z,12.30
2018-12-03T12:36:52.522Z,12.36
2018-12-03T12:37:56.741Z,12.28
2018-12-03T12:38:52.368Z,12.30
2018-12-03T12:39:52.292Z,12.30
2018-12-03T12:40:52.215Z,12.31
2018-12-03T12:41:52.140Z,12.26
2018-12-03T12:42:52.064Z,12.27
2018-12-03T12:43:51.986Z,12.34
2018-12-03T12:44:51.910Z,12.18
2018-12-03T12:45:51.834Z,12.19
2018-12-03T12:46:51.758Z,12.19
2018-12-03T12:47:51.682Z,12.23
2018-12-03T12:48:51.604Z,12.18
2018-12-03T12:49:51.528Z,12.15
2018-12-03T12:50:51.702Z,12.13
2018-12-03T12:51:51.815Z,12.16